Time;durP1;ratioP1;P1;durP2;ratioP2;P2;SDS_P1;SDS_P2;PMS_P1;PMS_P2;Temp;Humidity;BMP_temperature;BMP_pressure;BME280_temperature;BME280_humidity;BME280_pressure;Samples;Min_cycle;Max_cycle;Signal;HPM_P1;HPM_P2
2024/02/28 00:01:56;;;;;;;22.48;6.03;;;3.80;99.90;;;;;;5109113;28;20431;-45
2024/02/28 00:04:22;;;;;;;21.25;7.07;;;3.90;99.90;;;;;;5108959;28;20151;-46
2024/02/28 00:06:48;;;;;;;17.88;6.47;;;4.00;99.90;;;;;;5108550;28;20214;-46
2024/02/28 00:09:13;;;;;;;20.58;7.05;;;4.00;99.90;;;;;;5108745;28;20028;-47
2024/02/28 00:11:44;;;;;;;21.05;5.80;;;4.10;99.90;;;;;;5108576;28;20284;-47
2024/02/28 00:14:10;;;;;;;22.17;6.65;;;4.00;99.90;;;;;;5108863;28;20375;-46
2024/02/28 00:16:36;;;;;;;20.77;6.68;;;3.80;99.90;;;;;;5108721;28;20024;-46
2024/02/28 00:19:02;;;;;;;18.13;6.43;;;3.80;99.90;;;;;;5108563;28;20299;-47
2024/02/28 00:21:27;;;;;;;28.42;10.07;;;3.70;99.90;;;;;;5108325;28;20035;-46
2024/02/28 00:23:53;;;;;;;33.45;11.18;;;3.90;99.90;;;;;;5108305;28;20060;-46
2024/02/28 00:26:19;;;;;;;22.48;8.20;;;3.90;99.90;;;;;;5108538;28;20032;-45
2024/02/28 00:28:44;;;;;;;22.25;7.28;;;3.90;99.90;;;;;;5108505;28;20228;-46
2024/02/28 00:31:10;;;;;;;21.15;7.80;;;4.00;99.90;;;;;;5108321;28;20129;-46
2024/02/28 00:33:35;;;;;;;18.25;5.90;;;4.00;99.90;;;;;;5108359;28;20024;-45
2024/02/28 00:36:01;;;;;;;20.35;7.53;;;3.90;99.90;;;;;;5108325;28;20027;-46
2024/02/28 00:38:27;;;;;;;20.27;7.32;;;3.60;99.90;;;;;;5108325;28;20087;-45
2024/02/28 00:40:53;;;;;;;28.42;9.55;;;3.60;99.90;;;;;;5108253;28;20284;-45
2024/02/28 00:43:19;;;;;;;31.60;11.68;;;3.60;99.90;;;;;;5107304;28;20028;-45
2024/02/28 00:45:44;;;;;;;23.52;8.55;;;3.80;99.90;;;;;;5108058;28;20099;-45
2024/02/28 00:48:10;;;;;;;30.80;8.18;;;3.90;99.90;;;;;;5108075;28;20031;-45
2024/02/28 00:50:35;;;;;;;25.02;8.63;;;3.90;99.90;;;;;;5106935;28;20282;-47
2024/02/28 00:53:01;;;;;;;23.27;7.57;;;4.00;99.90;;;;;;5107997;28;20333;-45
2024/02/28 00:55:27;;;;;;;24.02;7.32;;;3.90;99.90;;;;;;5107829;28;20293;-45
2024/02/28 00:57:53;;;;;;;22.67;7.15;;;3.90;99.90;;;;;;5107848;28;20031;-45
2024/02/28 01:00:18;;;;;;;30.73;8.35;;;3.90;99.90;;;;;;5107880;28;20173;-45
2024/02/28 01:02:44;;;;;;;28.17;9.35;;;3.90;99.90;;;;;;5107841;28;20107;-46
2024/02/28 01:05:10;;;;;;;29.02;9.70;;;3.90;99.90;;;;;;5107689;28;20286;-45
2024/02/28 01:07:35;;;;;;;22.92;8.90;;;4.00;99.90;;;;;;5107559;28;20278;-45
2024/02/28 01:10:02;;;;;;;28.95;7.40;;;4.00;99.90;;;;;;5107525;28;20031;-45
2024/02/28 01:12:27;;;;;;;20.33;7.07;;;4.10;99.90;;;;;;5107553;28;20088;-45
2024/02/28 01:14:53;;;;;;;22.02;7.50;;;4.00;99.90;;;;;;5107706;28;20174;-46
2024/02/28 01:17:19;;;;;;;25.05;7.00;;;4.10;99.90;;;;;;5107517;28;20087;-45
2024/02/28 01:19:45;;;;;;;28.38;8.63;;;4.20;99.90;;;;;;5107313;28;20039;-45
2024/02/28 01:22:10;;;;;;;24.13;7.70;;;4.20;99.90;;;;;;5107522;28;20062;-46
2024/02/28 01:24:36;;;;;;;18.75;6.53;;;4.20;99.90;;;;;;5106263;28;20052;-45
2024/02/28 01:27:02;;;;;;;17.67;5.75;;;4.20;99.90;;;;;;5107336;28;20091;-45
2024/02/28 01:29:29;;;;;;;19.52;5.90;;;4.20;99.90;;;;;;5107224;28;20032;-46
2024/02/28 01:31:55;;;;;;;19.38;5.72;;;4.20;99.90;;;;;;5107167;28;20129;-45
2024/02/28 01:34:21;;;;;;;19.77;5.75;;;4.20;99.90;;;;;;5107226;28;20031;-46
2024/02/28 01:36:47;;;;;;;21.65;6.00;;;4.10;99.90;;;;;;5107244;28;20274;-45
2024/02/28 01:39:13;;;;;;;20.08;5.78;;;4.10;99.90;;;;;;5107046;28;20211;-45
2024/02/28 01:41:39;;;;;;;17.83;5.63;;;3.90;99.90;;;;;;5107174;28;20039;-45
2024/02/28 01:44:04;;;;;;;16.25;5.90;;;4.00;99.90;;;;;;5106985;28;20046;-45
2024/02/28 01:46:31;;;;;;;22.15;5.75;;;4.00;99.90;;;;;;5106990;28;20080;-46
2024/02/28 01:48:59;;;;;;;24.95;6.05;;;4.10;99.90;;;;;;5106223;28;20111;-45
2024/02/28 01:51:28;;;;;;;16.13;5.65;;;4.10;99.90;;;;;;5106767;28;20181;-46
2024/02/28 01:53:54;;;;;;;21.13;5.73;;;4.20;99.90;;;;;;5106782;28;20312;-46
2024/02/28 01:56:20;;;;;;;18.08;5.40;;;4.20;99.90;;;;;;5088746;28;20273;-46
2024/02/28 01:58:47;;;;;;;15.52;5.57;;;4.10;99.90;;;;;;5105443;28;20028;-45
2024/02/28 02:01:14;;;;;;;17.52;5.97;;;4.10;99.90;;;;;;5106804;28;20042;-46
2024/02/28 02:03:40;;;;;;;19.10;5.50;;;4.10;99.90;;;;;;5088580;28;20171;-46
2024/02/28 02:06:05;;;;;;;16.63;5.03;;;4.20;99.90;;;;;;5106687;28;20081;-45
2024/02/28 02:08:31;;;;;;;18.02;5.63;;;4.30;99.90;;;;;;5088561;28;20024;-46
2024/02/28 02:10:57;;;;;;;24.40;5.43;;;4.20;99.90;;;;;;5105780;28;20032;-46
2024/02/28 02:13:23;;;;;;;23.95;6.15;;;4.30;99.90;;;;;;5106459;28;20031;-46
2024/02/28 02:15:48;;;;;;;17.33;5.25;;;4.40;99.90;;;;;;5105986;28;20207;-46
2024/02/28 02:18:14;;;;;;;19.92;5.53;;;4.40;99.90;;;;;;5105483;28;20038;-48
2024/02/28 02:20:43;;;;;;;19.77;5.50;;;4.20;99.90;;;;;;5106402;28;20077;-46
2024/02/28 02:23:09;;;;;;;20.48;5.65;;;4.10;99.90;;;;;;5105320;28;20054;-46
2024/02/28 02:25:42;;;;;;;17.88;5.50;;;4.30;99.90;;;;;;5106112;28;20036;-45
2024/02/28 02:28:08;;;;;;;21.88;5.15;;;4.30;99.90;;;;;;5105367;28;20054;-45
2024/02/28 02:30:34;;;;;;;17.95;5.22;;;4.40;99.90;;;;;;5105663;28;20309;-46
2024/02/28 02:32:59;;;;;;;25.02;5.03;;;4.60;99.90;;;;;;5106135;28;20020;-45
2024/02/28 02:35:25;;;;;;;21.50;5.15;;;4.60;99.90;;;;;;5106255;28;20101;-45
2024/02/28 02:37:51;;;;;;;18.90;5.65;;;4.60;99.90;;;;;;5106029;28;20089;-46
2024/02/28 02:40:16;;;;;;;23.02;4.72;;;4.70;99.90;;;;;;5106169;28;20281;-46
2024/02/28 02:42:42;;;;;;;27.10;4.47;;;4.80;99.90;;;;;;5106113;28;20044;-45
2024/02/28 02:45:08;;;;;;;24.85;4.40;;;5.00;99.90;;;;;;5106004;28;20028;-46
2024/02/28 02:47:35;;;;;;;32.20;5.05;;;5.20;99.90;;;;;;5105621;28;20073;-45
2024/02/28 02:50:00;;;;;;;20.42;5.53;;;5.30;99.90;;;;;;5105881;28;20039;-45
2024/02/28 02:52:26;;;;;;;23.90;4.70;;;5.30;99.90;;;;;;5105922;28;20039;-48
2024/02/28 02:54:52;;;;;;;20.58;4.57;;;5.30;99.90;;;;;;5105575;28;20032;-46
2024/02/28 02:57:17;;;;;;;29.98;5.57;;;5.30;99.90;;;;;;5106073;28;20086;-47
2024/02/28 02:59:43;;;;;;;24.05;4.60;;;5.30;99.90;;;;;;5105998;28;20035;-45
2024/02/28 03:02:09;;;;;;;19.83;4.28;;;5.30;99.90;;;;;;5105535;28;20043;-46
2024/02/28 03:04:34;;;;;;;22.35;4.72;;;5.30;99.90;;;;;;5105820;28;20032;-45
2024/02/28 03:07:00;;;;;;;22.90;4.80;;;5.20;99.90;;;;;;5105949;28;20032;-45
2024/02/28 03:09:25;;;;;;;21.98;4.45;;;5.30;99.90;;;;;;5105590;28;20066;-46
2024/02/28 03:11:51;;;;;;;24.48;5.38;;;5.40;99.90;;;;;;5105615;28;20031;-45
2024/02/28 03:14:18;;;;;;;19.08;4.50;;;5.30;99.90;;;;;;5107342;28;20055;-45
2024/02/28 03:16:44;;;;;;;26.00;5.13;;;5.30;99.90;;;;;;5091865;28;20203;-45
2024/02/28 03:19:12;;;;;;;18.80;3.55;;;5.30;99.90;;;;;;5109834;28;20031;-46
2024/02/28 03:21:38;;;;;;;24.80;4.45;;;5.40;99.90;;;;;;5109767;28;20054;-46
2024/02/28 03:24:04;;;;;;;27.77;4.45;;;5.40;99.90;;;;;;5109653;28;20044;-45
2024/02/28 03:26:29;;;;;;;17.92;4.80;;;5.40;99.90;;;;;;5109630;28;20032;-45
2024/02/28 03:28:55;;;;;;;19.30;4.47;;;5.40;99.90;;;;;;5109375;28;20095;-46
2024/02/28 03:31:21;;;;;;;22.92;3.78;;;5.40;99.90;;;;;;5109478;28;20169;-45
2024/02/28 03:33:46;;;;;;;21.40;4.20;;;5.50;99.90;;;;;;5109039;28;20028;-45
2024/02/28 03:36:12;;;;;;;29.75;5.30;;;5.50;99.90;;;;;;5109594;28;20072;-45
2024/02/28 03:38:38;;;;;;;20.70;4.10;;;5.60;99.90;;;;;;5109317;28;20036;-46
2024/02/28 03:41:05;;;;;;;29.52;4.38;;;5.70;99.90;;;;;;5108961;28;20039;-45
2024/02/28 03:43:30;;;;;;;20.98;3.78;;;5.80;99.90;;;;;;5108043;28;20028;-45
2024/02/28 03:45:56;;;;;;;23.63;3.88;;;6.00;99.90;;;;;;5109053;28;20177;-46
2024/02/28 03:48:22;;;;;;;31.45;4.97;;;6.10;99.90;;;;;;5109367;28;20056;-46
2024/02/28 03:50:47;;;;;;;22.40;4.38;;;6.10;99.90;;;;;;5108719;28;20031;-47
2024/02/28 03:53:13;;;;;;;22.55;4.00;;;6.10;99.90;;;;;;5109141;28;20088;-44
2024/02/28 03:55:39;;;;;;;22.85;3.70;;;6.20;99.90;;;;;;5091030;28;20104;-45
2024/02/28 03:58:07;;;;;;;20.50;3.92;;;6.20;99.90;;;;;;5108084;28;20047;-46
2024/02/28 04:00:32;;;;;;;23.88;3.67;;;6.20;99.90;;;;;;5109023;28;20036;-45
2024/02/28 04:02:58;;;;;;;22.13;4.25;;;6.20;99.90;;;;;;5109085;28;20078;-44
2024/02/28 04:05:23;;;;;;;19.95;3.38;;;6.20;99.90;;;;;;5108835;28;20020;-46
2024/02/28 04:07:49;;;;;;;26.80;3.90;;;6.30;99.90;;;;;;5108922;28;20036;-45
2024/02/28 04:10:15;;;;;;;25.35;4.30;;;6.30;99.90;;;;;;5108895;28;20316;-44
2024/02/28 04:12:43;;;;;;;16.98;4.22;;;6.30;99.90;;;;;;5108847;28;20054;-44
2024/02/28 04:15:10;;;;;;;19.70;4.15;;;6.30;99.90;;;;;;5107658;28;20030;-44
2024/02/28 04:17:36;;;;;;;22.10;3.88;;;6.30;99.90;;;;;;5107662;28;20307;-45
2024/02/28 04:20:04;;;;;;;26.02;4.25;;;6.30;99.90;;;;;;5107668;28;20266;-44
2024/02/28 04:22:31;;;;;;;25.33;4.55;;;6.40;99.90;;;;;;5108450;28;20024;-44
2024/02/28 04:24:57;;;;;;;21.48;3.95;;;6.40;99.90;;;;;;5108234;28;20329;-44
2024/02/28 04:27:23;;;;;;;15.30;3.70;;;6.40;99.90;;;;;;5090451;28;20026;-45
2024/02/28 04:29:48;;;;;;;20.90;3.40;;;6.40;99.90;;;;;;5108373;28;20077;-45
2024/02/28 04:32:14;;;;;;;20.27;4.07;;;6.40;99.90;;;;;;5108473;28;20051;-45
2024/02/28 04:34:40;;;;;;;18.90;3.35;;;6.40;99.90;;;;;;5108334;28;20020;-44
2024/02/28 04:37:05;;;;;;;19.63;4.03;;;6.50;99.90;;;;;;5108116;28;20032;-45
2024/02/28 04:39:31;;;;;;;20.83;4.38;;;6.50;99.90;;;;;;5108270;28;20028;-45
2024/02/28 04:41:56;;;;;;;26.75;4.78;;;6.50;99.90;;;;;;5108340;28;20027;-44
2024/02/28 04:44:22;;;;;;;17.17;3.45;;;6.50;99.90;;;;;;5108262;28;20085;-44
2024/02/28 04:46:48;;;;;;;25.52;4.60;;;6.50;99.90;;;;;;5107697;28;20116;-45
2024/02/28 04:49:13;;;;;;;24.10;4.70;;;6.50;99.90;;;;;;5108231;28;20289;-45
2024/02/28 04:51:39;;;;;;;15.50;3.80;;;6.60;99.90;;;;;;5107860;28;20122;-45
2024/02/28 04:54:05;;;;;;;27.52;4.43;;;6.60;99.90;;;;;;5107991;28;20070;-45
2024/02/28 04:56:30;;;;;;;25.20;4.78;;;6.60;99.90;;;;;;5107993;28;20024;-46
2024/02/28 04:58:56;;;;;;;22.60;3.95;;;6.60;99.90;;;;;;5107866;28;20027;-45
2024/02/28 05:01:22;;;;;;;29.17;4.43;;;6.60;99.90;;;;;;5107846;28;20063;-46
2024/02/28 05:03:48;;;;;;;22.15;4.20;;;6.70;99.90;;;;;;5107940;28;20020;-45
2024/02/28 05:06:13;;;;;;;28.52;5.07;;;6.70;99.90;;;;;;5107873;28;20065;-45
2024/02/28 05:08:39;;;;;;;24.67;4.18;;;6.70;99.90;;;;;;5107306;28;20055;-45
2024/02/28 05:11:05;;;;;;;27.58;5.22;;;6.70;99.90;;;;;;5107728;28;20043;-45
2024/02/28 05:13:30;;;;;;;23.65;4.60;;;6.80;99.90;;;;;;5107657;28;20232;-45
2024/02/28 05:15:56;;;;;;;22.67;3.92;;;6.80;99.90;;;;;;5107543;28;20032;-45
2024/02/28 05:18:22;;;;;;;23.38;4.93;;;6.90;99.90;;;;;;5107575;28;20080;-44
2024/02/28 05:20:48;;;;;;;27.35;4.68;;;6.80;99.90;;;;;;5107576;28;20316;-44
2024/02/28 05:23:13;;;;;;;26.45;5.30;;;6.90;99.90;;;;;;5107523;28;20059;-45
2024/02/28 05:25:39;;;;;;;24.05;4.90;;;7.00;99.90;;;;;;5107372;28;20038;-45
2024/02/28 05:28:05;;;;;;;24.67;5.38;;;7.00;99.90;;;;;;5107270;28;20056;-44
2024/02/28 05:30:30;;;;;;;25.45;4.50;;;7.00;99.90;;;;;;5107175;28;20035;-44
2024/02/28 05:32:56;;;;;;;26.13;5.32;;;7.10;99.90;;;;;;5106891;28;20028;-45
2024/02/28 05:35:22;;;;;;;25.42;4.55;;;7.10;99.90;;;;;;5107101;28;20032;-45
2024/02/28 05:37:47;;;;;;;24.52;4.25;;;7.20;99.90;;;;;;5106495;28;20032;-44
2024/02/28 05:40:13;;;;;;;19.50;4.10;;;7.20;99.90;;;;;;5107285;28;20091;-44
2024/02/28 05:42:39;;;;;;;27.15;4.53;;;7.20;99.90;;;;;;5107080;28;20028;-45
2024/02/28 05:45:06;;;;;;;24.25;4.47;;;7.30;99.90;;;;;;5106700;28;20178;-45
2024/02/28 05:47:32;;;;;;;19.65;4.20;;;7.30;99.90;;;;;;5106730;28;20165;-45
2024/02/28 05:49:58;;;;;;;22.95;5.43;;;7.30;99.90;;;;;;5106786;28;20032;-45
2024/02/28 05:52:25;;;;;;;22.80;5.00;;;7.30;99.90;;;;;;5106718;28;20032;-44
2024/02/28 05:54:51;;;;;;;23.27;4.18;;;7.30;99.90;;;;;;5106647;28;20024;-45
2024/02/28 05:57:17;;;;;;;20.48;4.30;;;7.30;99.90;;;;;;5106327;28;20024;-45
2024/02/28 05:59:42;;;;;;;32.58;5.65;;;7.30;99.90;;;;;;5106709;28;20036;-45
2024/02/28 06:02:08;;;;;;;22.65;3.78;;;7.30;99.90;;;;;;5106658;28;20045;-45
2024/02/28 06:04:34;;;;;;;26.00;4.95;;;7.30;99.90;;;;;;5106658;28;20027;-44
2024/02/28 06:07:00;;;;;;;17.27;3.88;;;7.30;99.90;;;;;;5106674;28;20032;-45
2024/02/28 06:09:27;;;;;;;22.00;4.00;;;7.30;99.90;;;;;;5106474;28;20031;-44
2024/02/28 06:11:53;;;;;;;19.90;4.95;;;7.30;99.90;;;;;;5106243;28;20035;-45
2024/02/28 06:14:19;;;;;;;26.23;3.63;;;7.30;99.90;;;;;;5106554;28;20028;-45
2024/02/28 06:16:47;;;;;;;20.30;4.00;;;7.30;99.90;;;;;;5105881;28;20023;-45
2024/02/28 06:19:13;;;;;;;28.08;5.47;;;7.30;99.90;;;;;;5088234;28;20031;-46
2024/02/28 06:21:39;;;;;;;27.02;4.75;;;7.30;99.90;;;;;;5106089;28;20036;-45
2024/02/28 06:24:05;;;;;;;24.10;4.30;;;7.30;99.90;;;;;;5106157;28;20052;-44
2024/02/28 06:26:31;;;;;;;27.75;6.25;;;7.40;99.90;;;;;;5106105;28;20230;-45
2024/02/28 06:29:01;;;;;;;28.95;5.18;;;7.40;99.90;;;;;;5104842;28;20032;-44
2024/02/28 06:31:29;;;;;;;24.90;5.95;;;7.40;99.90;;;;;;5105097;28;20031;-45
2024/02/28 06:33:55;;;;;;;28.58;6.22;;;7.40;99.90;;;;;;5105961;28;20043;-44
2024/02/28 06:36:20;;;;;;;23.90;4.45;;;7.40;99.90;;;;;;5088117;28;20189;-44
2024/02/28 06:38:46;;;;;;;28.35;6.43;;;7.40;99.90;;;;;;5106120;28;20020;-45
2024/02/28 06:41:12;;;;;;;28.05;5.32;;;7.40;99.90;;;;;;5105936;28;20323;-45
2024/02/28 06:43:37;;;;;;;22.83;4.30;;;7.40;99.90;;;;;;5105705;28;20023;-45
2024/02/28 06:46:03;;;;;;;21.23;4.90;;;7.40;99.90;;;;;;5105597;28;20308;-44
2024/02/28 06:48:29;;;;;;;25.50;5.50;;;7.40;99.90;;;;;;5104431;28;20040;-46
2024/02/28 06:50:55;;;;;;;25.05;4.93;;;7.40;99.90;;;;;;5105513;28;20039;-44
2024/02/28 06:53:21;;;;;;;26.90;5.72;;;7.40;99.90;;;;;;5105566;28;20016;-45
2024/02/28 06:55:48;;;;;;;27.40;4.72;;;7.40;99.90;;;;;;5105868;28;20347;-44
2024/02/28 06:58:14;;;;;;;19.50;4.10;;;7.40;99.90;;;;;;5105802;28;20024;-44
2024/02/28 07:00:40;;;;;;;20.88;4.63;;;7.50;99.90;;;;;;5105869;28;20044;-45
2024/02/28 07:03:06;;;;;;;24.13;4.40;;;7.50;99.90;;;;;;5105667;28;20043;-45
2024/02/28 07:05:33;;;;;;;13.93;3.47;;;7.50;99.90;;;;;;5105718;28;20032;-45
2024/02/28 07:07:59;;;;;;;22.70;4.30;;;7.50;99.90;;;;;;5105643;28;20073;-45
2024/02/28 07:10:25;;;;;;;21.02;5.38;;;7.50;99.90;;;;;;5105616;28;20032;-45
2024/02/28 07:12:50;;;;;;;23.85;4.53;;;7.50;99.90;;;;;;5105195;28;20024;-45
2024/02/28 07:15:19;;;;;;;23.98;4.85;;;7.50;99.90;;;;;;5105299;28;20024;-45
2024/02/28 07:17:45;;;;;;;28.10;3.90;;;7.50;99.90;;;;;;5105043;28;20054;-45
2024/02/28 07:20:12;;;;;;;21.92;4.53;;;7.50;99.90;;;;;;5105613;28;20028;-46
2024/02/28 07:22:37;;;;;;;19.02;3.55;;;7.50;99.90;;;;;;5105402;28;21236;-45
2024/02/28 07:25:04;;;;;;;23.73;4.07;;;7.50;99.90;;;;;;5104305;28;20050;-45
2024/02/28 07:27:30;;;;;;;17.70;3.60;;;7.50;99.90;;;;;;5105206;28;20025;-45
2024/02/28 07:29:56;;;;;;;24.27;4.35;;;7.50;99.90;;;;;;5105370;28;20054;-45
2024/02/28 07:32:23;;;;;;;22.98;4.05;;;7.50;99.90;;;;;;5104718;28;20028;-46
2024/02/28 07:34:48;;;;;;;24.50;4.38;;;7.50;99.90;;;;;;5105362;28;20063;-45
2024/02/28 07:37:14;;;;;;;24.67;4.90;;;7.50;99.90;;;;;;5105201;28;20020;-46
2024/02/28 07:39:41;;;;;;;12.63;3.25;;;7.50;99.90;;;;;;5105082;28;20198;-45
2024/02/28 07:42:06;;;;;;;19.90;4.90;;;7.40;99.90;;;;;;5105068;28;20087;-45
2024/02/28 07:44:32;;;;;;;28.52;4.57;;;7.50;99.90;;;;;;5105291;28;20027;-45
2024/02/28 07:46:58;;;;;;;15.10;2.97;;;7.40;99.90;;;;;;5104858;28;20036;-45
2024/02/28 07:49:24;;;;;;;25.15;4.93;;;7.40;99.90;;;;;;5105305;28;20042;-46
2024/02/28 07:51:50;;;;;;;20.38;3.45;;;7.40;99.90;;;;;;5104660;28;20028;-46
2024/02/28 07:54:16;;;;;;;21.65;3.83;;;7.40;99.90;;;;;;5105209;28;20285;-45
2024/02/28 07:56:42;;;;;;;22.88;4.30;;;7.40;99.90;;;;;;5105226;28;20087;-46
2024/02/28 07:59:07;;;;;;;13.10;3.58;;;7.40;99.90;;;;;;5105274;28;20019;-46
2024/02/28 08:01:33;;;;;;;13.40;3.33;;;7.30;99.90;;;;;;5108350;28;20027;-45
2024/02/28 08:03:59;;;;;;;17.10;3.50;;;7.30;99.90;;;;;;5108922;28;20196;-45
2024/02/28 08:06:25;;;;;;;20.45;3.67;;;7.30;99.90;;;;;;5108718;28;20325;-45
2024/02/28 08:08:51;;;;;;;21.70;4.82;;;7.30;99.90;;;;;;5108313;28;20112;-44
2024/02/28 08:11:16;;;;;;;18.05;3.35;;;7.30;99.90;;;;;;5108169;28;20039;-44
2024/02/28 08:13:43;;;;;;;27.23;3.97;;;7.30;99.90;;;;;;5108604;28;20020;-45
2024/02/28 08:16:09;;;;;;;19.88;3.88;;;7.30;99.90;;;;;;5108463;28;20273;-44
2024/02/28 08:18:35;;;;;;;17.05;3.35;;;7.30;99.90;;;;;;5108551;28;20265;-45
2024/02/28 08:21:02;;;;;;;22.52;3.80;;;7.40;99.90;;;;;;5108418;28;20046;-45
2024/02/28 08:23:29;;;;;;;19.25;3.17;;;7.40;99.90;;;;;;5108016;28;20051;-45
2024/02/28 08:25:55;;;;;;;17.05;4.50;;;7.50;99.90;;;;;;5107077;28;20312;-44
2024/02/28 08:28:20;;;;;;;23.70;4.07;;;7.50;99.90;;;;;;5108242;28;20027;-44
2024/02/28 08:30:46;;;;;;;11.18;2.90;;;7.50;99.90;;;;;;5108006;28;20074;-44
2024/02/28 08:33:12;;;;;;;16.17;3.47;;;7.50;99.90;;;;;;5107909;28;20035;-44
2024/02/28 08:35:38;;;;;;;19.52;4.43;;;7.50;99.90;;;;;;5108148;28;20063;-48
2024/02/28 08:38:03;;;;;;;16.25;3.53;;;7.50;99.90;;;;;;5108049;28;20036;-45
2024/02/28 08:40:30;;;;;;;17.17;3.38;;;7.50;99.90;;;;;;5107506;28;20032;-46
2024/02/28 08:42:56;;;;;;;20.13;3.85;;;7.50;99.90;;;;;;5107175;28;20039;-45
2024/02/28 08:45:25;;;;;;;18.38;3.83;;;7.50;99.90;;;;;;5107320;28;20043;-45
2024/02/28 08:47:52;;;;;;;17.13;3.80;;;7.50;99.90;;;;;;5107460;28;20047;-46
2024/02/28 08:50:18;;;;;;;22.13;3.83;;;7.50;99.90;;;;;;5108067;28;20262;-46
2024/02/28 08:52:44;;;;;;;14.85;2.63;;;7.50;99.90;;;;;;5107592;28;20039;-44
2024/02/28 08:55:10;;;;;;;13.13;3.38;;;7.60;99.90;;;;;;5107545;28;20185;-45
2024/02/28 08:57:35;;;;;;;19.13;3.25;;;7.50;99.90;;;;;;5107322;28;20331;-45
2024/02/28 09:00:01;;;;;;;19.02;3.88;;;7.50;99.90;;;;;;5107688;28;20027;-45
2024/02/28 09:02:27;;;;;;;17.95;3.35;;;7.60;99.90;;;;;;5107390;28;20059;-45
2024/02/28 09:04:56;;;;;;;14.50;3.22;;;7.60;99.90;;;;;;5107367;28;20178;-47
2024/02/28 09:07:22;;;;;;;12.30;2.58;;;7.70;99.90;;;;;;5107430;28;20174;-48
2024/02/28 09:09:49;;;;;;;20.77;3.63;;;7.80;99.90;;;;;;5106109;28;20036;-48
2024/02/28 09:12:14;;;;;;;19.20;3.38;;;7.80;99.90;;;;;;5105835;28;20024;-46
2024/02/28 09:14:40;;;;;;;15.57;3.63;;;7.80;99.90;;;;;;5107777;28;20028;-46
2024/02/28 09:17:06;;;;;;;15.55;3.45;;;7.70;99.90;;;;;;5107119;28;20270;-45
2024/02/28 09:19:32;;;;;;;18.80;3.53;;;7.80;99.90;;;;;;5107005;28;20020;-45
2024/02/28 09:21:58;;;;;;;17.15;2.90;;;7.80;99.90;;;;;;5107163;28;20024;-48
2024/02/28 09:24:24;;;;;;;15.88;2.83;;;7.80;99.90;;;;;;5106854;28;20197;-46
2024/02/28 09:26:50;;;;;;;14.70;4.13;;;7.90;99.90;;;;;;5106925;28;20028;-46
2024/02/28 09:29:15;;;;;;;10.60;2.70;;;7.80;99.90;;;;;;5106992;28;20218;-47
2024/02/28 09:31:41;;;;;;;16.65;3.20;;;7.80;99.90;;;;;;5106402;28;20035;-46
2024/02/28 09:34:09;;;;;;;20.67;3.10;;;7.90;99.90;;;;;;5106462;28;20039;-46
2024/02/28 09:36:45;;;;;;;13.52;3.58;;;7.90;99.90;;;;;;5106655;28;20269;-49
2024/02/28 09:39:17;;;;;;;14.73;3.33;;;7.90;99.90;;;;;;5106835;28;20066;-47
2024/02/28 09:41:42;;;;;;;16.77;3.97;;;8.00;99.90;;;;;;5106882;28;20024;-46
2024/02/28 09:44:08;;;;;;;20.95;3.95;;;8.00;99.90;;;;;;5106262;28;20093;-47
2024/02/28 09:46:34;;;;;;;19.17;2.75;;;8.00;99.90;;;;;;5106513;28;20031;-45
2024/02/28 09:49:05;;;;;;;18.75;3.17;;;8.10;99.90;;;;;;5105995;28;20032;-47
2024/02/28 09:51:33;;;;;;;14.50;2.63;;;8.10;99.90;;;;;;5105306;28;20065;-46
2024/02/28 09:54:00;;;;;;;16.02;4.00;;;8.10;99.90;;;;;;5106507;28;20028;-47
2024/02/28 09:56:26;;;;;;;13.25;3.40;;;8.10;99.90;;;;;;5106423;28;20039;-47
2024/02/28 09:58:51;;;;;;;16.02;2.80;;;8.20;99.90;;;;;;5105935;28;20032;-48
2024/02/28 10:01:17;;;;;;;12.27;2.63;;;8.30;99.90;;;;;;5105451;28;20036;-46
2024/02/28 10:03:43;;;;;;;14.35;3.00;;;8.20;99.90;;;;;;5105456;28;20028;-47
2024/02/28 10:06:09;;;;;;;16.98;2.70;;;8.30;99.90;;;;;;5105297;28;20039;-46
2024/02/28 10:08:36;;;;;;;5.28;1.63;;;8.30;99.90;;;;;;5106277;28;20040;-48
2024/02/28 10:11:02;;;;;;;11.88;2.30;;;8.40;99.90;;;;;;5106067;28;20089;-45
2024/02/28 10:13:28;;;;;;;5.65;1.77;;;8.40;99.90;;;;;;5105952;28;20193;-47
2024/02/28 10:15:54;;;;;;;8.70;2.45;;;8.50;99.90;;;;;;5105568;28;20028;-48
2024/02/28 10:18:20;;;;;;;10.07;2.35;;;8.60;99.90;;;;;;5105860;28;20034;-49
2024/02/28 10:20:45;;;;;;;4.00;1.50;;;8.70;99.90;;;;;;5105963;28;20043;-48
2024/02/28 10:23:11;;;;;;;10.55;1.95;;;8.70;99.90;;;;;;5105637;28;20091;-45
2024/02/28 10:25:45;;;;;;;9.10;2.65;;;8.80;99.90;;;;;;5106078;28;20297;-48
2024/02/28 10:28:11;;;;;;;8.50;1.80;;;8.80;99.90;;;;;;5105715;28;20032;-46
2024/02/28 10:30:40;;;;;;;4.95;1.60;;;8.90;99.90;;;;;;5105921;28;20228;-46
2024/02/28 10:33:16;;;;;;;4.10;1.40;;;8.90;99.90;;;;;;5105994;28;20046;-46
2024/02/28 10:35:45;;;;;;;3.03;1.30;;;9.00;99.90;;;;;;5105640;28;20051;-45
2024/02/28 10:38:11;;;;;;;2.33;1.10;;;9.00;99.90;;;;;;5104834;28;20024;-47
2024/02/28 10:40:37;;;;;;;5.05;1.20;;;9.10;99.90;;;;;;5105605;28;20034;-46
2024/02/28 10:43:04;;;;;;;3.90;1.20;;;9.10;99.90;;;;;;5104401;28;20060;-45
2024/02/28 10:45:31;;;;;;;7.75;1.80;;;9.20;99.90;;;;;;5105053;28;20032;-47
2024/02/28 10:47:57;;;;;;;4.50;1.45;;;9.20;99.90;;;;;;5105025;28;20031;-45
2024/02/28 10:50:22;;;;;;;5.80;1.70;;;9.20;99.90;;;;;;5105340;28;20036;-46
2024/02/28 10:52:50;;;;;;;2.92;1.42;;;9.30;99.90;;;;;;5104223;28;20082;-46
2024/02/28 10:55:23;;;;;;;3.88;1.25;;;9.30;99.90;;;;;;5105322;28;20020;-48
2024/02/28 10:57:54;;;;;;;7.35;1.65;;;9.30;99.90;;;;;;5105007;28;20035;-44
2024/02/28 11:00:20;;;;;;;3.88;1.40;;;9.40;99.90;;;;;;5104155;28;20031;-45
2024/02/28 11:02:45;;;;;;;3.53;1.20;;;9.40;99.90;;;;;;5104153;28;20047;-46
2024/02/28 11:05:11;;;;;;;3.55;1.27;;;9.40;99.90;;;;;;5105078;28;20024;-46
2024/02/28 11:07:41;;;;;;;4.32;1.02;;;9.40;99.90;;;;;;5105192;28;20035;-45
2024/02/28 11:10:07;;;;;;;;;;;9.40;99.90;;;;;;5105602;28;20024;-46
2024/02/28 11:12:33;;;;;;;5.63;1.38;;;9.40;99.90;;;;;;5105172;28;19979;-47
2024/02/28 11:15:05;;;;;;;4.07;1.08;;;9.40;99.90;;;;;;5104977;28;20052;-44
2024/02/28 11:17:31;;;;;;;2.03;1.10;;;9.30;99.90;;;;;;5104646;28;20040;-45
2024/02/28 11:19:57;;;;;;;1.23;0.70;;;9.30;99.90;;;;;;5105055;28;20028;-46
2024/02/28 11:22:23;;;;;;;3.80;1.10;;;9.30;99.90;;;;;;5104879;28;20113;-45
2024/02/28 11:24:49;;;;;;;2.25;0.82;;;9.30;99.90;;;;;;5105220;28;20070;-45
2024/02/28 11:27:15;;;;;;;13.40;6.20;;;9.30;99.90;;;;;;5105116;28;20049;-47
2024/02/28 11:29:41;;;;;;;6.10;2.10;;;9.30;99.90;;;;;;5105217;28;20170;-44
2024/02/28 11:32:07;;;;;;;5.05;1.77;;;9.30;99.90;;;;;;5105091;28;20020;-45
2024/02/28 11:34:36;;;;;;;2.90;1.70;;;9.40;99.90;;;;;;5105357;28;20178;-46
2024/02/28 11:37:02;;;;;;;2.60;1.08;;;9.40;99.90;;;;;;5108705;28;20052;-46
2024/02/28 11:39:30;;;;;;;4.90;1.85;;;9.40;99.90;;;;;;5108661;28;20039;-45
2024/02/28 11:41:55;;;;;;;1.92;1.20;;;9.40;99.90;;;;;;5108735;28;20045;-46
2024/02/28 11:44:21;;;;;;;6.70;6.03;;;9.40;99.90;;;;;;5108504;28;20140;-45
2024/02/28 11:46:48;;;;;;;1.73;1.10;;;9.50;99.90;;;;;;5108513;28;20113;-44
2024/02/28 11:49:14;;;;;;;3.58;1.42;;;9.50;99.90;;;;;;5107363;28;20076;-45
2024/02/28 11:51:48;;;;;;;9.32;4.00;;;9.50;99.90;;;;;;5090549;28;20036;-47
2024/02/28 11:54:14;;;;;;;7.80;4.30;;;9.60;99.90;;;;;;5108955;28;20280;-46
2024/02/28 11:56:40;;;;;;;2.20;1.58;;;9.70;99.90;;;;;;5108576;28;20038;-48
2024/02/28 11:59:05;;;;;;;4.35;3.28;;;9.70;99.90;;;;;;5107538;28;20170;-45
2024/02/28 12:01:36;;;;;;;4.78;2.33;;;9.80;99.90;;;;;;5108409;28;20028;-45
2024/02/28 12:04:05;;;;;;;2.97;1.52;;;10.00;99.90;;;;;;5108416;28;20032;-44
2024/02/28 12:06:31;;;;;;;5.35;4.07;;;10.10;99.90;;;;;;5107373;28;20040;-46
2024/02/28 12:08:57;;;;;;;5.82;3.45;;;10.10;99.90;;;;;;5107936;28;20036;-45
2024/02/28 12:11:24;;;;;;;15.18;9.88;;;10.20;99.90;;;;;;5107014;28;20338;-47
2024/02/28 12:13:53;;;;;;;3.15;1.73;;;10.20;99.90;;;;;;5108044;28;20046;-47
2024/02/28 12:16:22;;;;;;;5.68;2.80;;;10.20;99.90;;;;;;5108197;28;20028;-46
2024/02/28 12:18:48;;;;;;;10.07;6.28;;;10.20;99.90;;;;;;5107553;28;20024;-48
2024/02/28 12:21:14;;;;;;;5.22;3.35;;;10.20;99.90;;;;;;5107908;28;20302;-46
2024/02/28 12:23:39;;;;;;;3.53;2.25;;;10.30;99.90;;;;;;5107620;28;20107;-46
2024/02/28 12:26:06;;;;;;;3.95;2.47;;;10.30;99.90;;;;;;5107809;28;20102;-47
2024/02/28 12:28:31;;;;;;;1.98;1.20;;;10.30;99.90;;;;;;5107717;28;20027;-46
2024/02/28 12:30:57;;;;;;;4.10;1.77;;;10.20;99.90;;;;;;5107412;28;20054;-45
2024/02/28 12:33:23;;;;;;;1.92;1.40;;;10.30;99.90;;;;;;5107342;28;20073;-45
2024/02/28 12:35:49;;;;;;;4.38;2.53;;;10.30;99.90;;;;;;5107621;28;20020;-49
2024/02/28 12:38:15;;;;;;;2.58;1.80;;;10.30;99.90;;;;;;5107357;28;20095;-47
2024/02/28 12:40:42;;;;;;;2.70;2.00;;;10.30;99.90;;;;;;5107159;28;20085;-45
2024/02/28 12:43:08;;;;;;;2.72;1.20;;;10.30;99.90;;;;;;5107450;28;20060;-46